Terminal Aerodrome Forecast
Issued by NWS Knoxville/Tri Cities, TN

Home | Current Version | Previous Version | Text Only | Print | Product List | Glossary On
Versions: 1 2 3 4 5 6 7 8 9 10 11 12 13 14 15 16 17 18 19 20 21 22 23 24
000
FTUS44 KMRX 282320
TAFTYS
TAF
KTYS 282320Z 2900/2924 32003KT 2SM BR SCT009 OVC015
      TEMPO 2900/2902 1 1/2SM -RA BKN009
     FM290200 34003KT 1SM -RA BR OVC007
     FM290400 33004KT 1/2SM -RA FG OVC004
     FM291100 01004KT 3SM -DZ BR OVC008
     FM292000 01004KT P6SM OVC010=

USA.gov is the U.S. government's official web portal to all federal, state and local government web resources and services.